Time;durP1;ratioP1;P1;durP2;ratioP2;P2;SDS_P1;SDS_P2;PMS_P1;PMS_P2;Temp;Humidity;BMP_temperature;BMP_pressure;BME280_temperature;BME280_humidity;BME280_pressure;Samples;Min_cycle;Max_cycle;Signal;HPM_P1;HPM_P2
2023/01/19 00:01:18;;;;;;;10.93;9.83;;;1.00;99.90;;;;;;5076601;28;20431;-71
2023/01/19 00:03:44;;;;;;;12.87;10.20;;;1.00;99.90;;;;;;5076357;28;20392;-71
2023/01/19 00:06:10;;;;;;;14.80;11.10;;;1.10;99.90;;;;;;5076033;28;20777;-71
2023/01/19 00:08:36;;;;;;;12.00;10.30;;;1.10;99.90;;;;;;5076286;28;20173;-71
2023/01/19 00:11:02;;;;;;;12.53;11.00;;;1.10;99.90;;;;;;5076766;28;20177;-71
2023/01/19 00:13:27;;;;;;;14.37;10.77;;;1.10;99.90;;;;;;5075598;28;20199;-71
2023/01/19 00:15:53;;;;;;;13.43;11.33;;;1.10;99.90;;;;;;5073887;28;20447;-71
2023/01/19 00:18:19;;;;;;;12.17;9.30;;;1.20;99.90;;;;;;5075442;28;20196;-70
2023/01/19 00:20:45;;;;;;;10.43;9.43;;;1.30;99.90;;;;;;5075799;28;20442;-71
2023/01/19 00:23:12;;;;;;;13.77;10.90;;;1.30;99.90;;;;;;5075827;28;20237;-71
2023/01/19 00:25:48;;;;;;;13.77;11.27;;;1.30;99.90;;;;;;5057431;28;20510;-71
2023/01/19 00:28:16;;;;;;;17.80;11.50;;;1.30;99.90;;;;;;5075055;28;20474;-71
2023/01/19 00:30:41;;;;;;;13.17;11.80;;;1.30;99.90;;;;;;5053270;28;20413;-71
2023/01/19 00:33:08;;;;;;;15.40;12.27;;;1.10;99.90;;;;;;5055547;28;20850;-71
2023/01/19 00:35:34;;;;;;;13.20;11.80;;;1.00;99.90;;;;;;5055396;28;20163;-71
2023/01/19 00:38:01;;;;;;;13.07;10.57;;;1.00;99.90;;;;;;5037332;28;20451;-70
2023/01/19 00:40:27;;;;;;;12.40;10.47;;;1.10;99.90;;;;;;5055160;28;20423;-70
2023/01/19 00:42:53;;;;;;;12.73;11.40;;;1.10;99.90;;;;;;5055438;28;20412;-71
2023/01/19 00:45:20;;;;;;;13.10;11.70;;;1.10;99.90;;;;;;5065067;28;20411;-71
2023/01/19 00:47:47;;;;;;;12.83;11.30;;;1.10;99.90;;;;;;5075239;28;20442;-71
2023/01/19 00:50:17;;;;;;;13.63;11.00;;;1.20;99.90;;;;;;5075401;28;20407;-70
2023/01/19 00:52:43;;;;;;;15.43;11.00;;;1.10;99.90;;;;;;5075618;28;20396;-71
2023/01/19 00:55:11;;;;;;;16.97;12.43;;;0.90;99.90;;;;;;5075112;28;20807;-71
2023/01/19 00:57:37;;;;;;;17.30;12.80;;;0.80;99.90;;;;;;5074897;28;20521;-71
2023/01/19 01:00:10;;;;;;;15.83;11.57;;;0.70;99.90;;;;;;5074795;28;20409;-71
2023/01/19 01:02:36;;;;;;;12.73;11.43;;;0.70;99.90;;;;;;5056930;28;20407;-71
2023/01/19 01:05:04;;;;;;;13.80;11.70;;;0.60;99.90;;;;;;5057521;28;20443;-71
2023/01/19 01:07:43;;;;;;;13.67;11.90;;;0.70;99.90;;;;;;5056957;28;20432;-70
2023/01/19 01:10:20;;;;;;;14.63;11.70;;;0.80;99.90;;;;;;5074933;28;20380;-69
2023/01/19 01:12:46;;;;;;;13.63;10.10;;;0.90;99.90;;;;;;5036738;28;20397;-70
2023/01/19 01:15:14;;;;;;;12.10;10.80;;;0.90;99.90;;;;;;5061950;28;20452;-69
2023/01/19 01:17:46;;;;;;;11.80;10.50;;;0.90;99.90;;;;;;5074501;28;21034;-70
2023/01/19 01:20:24;;;;;;;10.60;9.50;;;0.90;99.90;;;;;;5074434;28;20467;-70
2023/01/19 01:22:52;;;;;;;11.77;10.57;;;0.90;99.90;;;;;;5074375;28;20453;-70
2023/01/19 01:25:23;;;;;;;11.37;9.97;;;0.80;99.90;;;;;;5056700;28;20408;-70
2023/01/19 01:27:49;;;;;;;13.33;9.97;;;0.70;99.90;;;;;;5075112;28;20781;-70
2023/01/19 01:30:15;;;;;;;13.13;10.60;;;0.70;99.90;;;;;;5074045;28;20412;-71
2023/01/19 01:32:41;;;;;;;11.07;9.23;;;0.70;99.90;;;;;;5074603;28;20402;-70
2023/01/19 01:35:08;;;;;;;14.63;10.60;;;0.70;99.90;;;;;;5074366;28;20771;-69
2023/01/19 01:37:35;;;;;;;9.87;8.83;;;0.80;99.90;;;;;;5074494;28;20566;-71
2023/01/19 01:40:01;;;;;;;12.93;9.43;;;0.80;99.90;;;;;;5074116;28;20405;-69
2023/01/19 01:42:29;;;;;;;12.00;10.60;;;0.90;99.90;;;;;;5074161;28;20408;-70
2023/01/19 01:45:01;;;;;;;12.20;10.53;;;0.90;99.90;;;;;;5074037;28;20177;-70
2023/01/19 01:47:46;;;;;;;12.80;10.80;;;0.80;99.90;;;;;;5074177;28;20470;-69
2023/01/19 01:50:23;;;;;;;11.43;9.57;;;0.80;99.90;;;;;;5056525;28;20922;-70
2023/01/19 01:53:20;;;;;;;14.03;10.07;;;0.90;99.90;;;;;;5074151;28;20754;-70
2023/01/19 01:55:47;;;;;;;10.80;9.70;;;0.80;99.90;;;;;;5056338;28;20416;-70
2023/01/19 01:58:15;;;;;;;12.50;9.53;;;0.70;99.90;;;;;;5074407;28;20439;-70
2023/01/19 02:03:25;;;;;;;12.53;10.17;;;0.70;99.90;;;;;;5074077;28;20916;-70
2023/01/19 02:05:56;;;;;;;13.33;10.50;;;0.60;99.90;;;;;;5073733;28;20426;-70
2023/01/19 02:14:03;;;;;;;12.03;9.00;;;0.50;99.90;;;;;;5074430;28;20947;-70
2023/01/19 02:16:29;;;;;;;10.43;9.13;;;0.60;99.90;;;;;;5072344;28;20450;-70
2023/01/19 02:18:56;;;;;;;12.83;9.63;;;0.80;99.90;;;;;;5055895;28;20538;-70
2023/01/19 02:21:55;;;;;;;9.57;8.60;;;0.80;99.90;;;;;;5056333;28;20423;-70
2023/01/19 02:24:21;;;;;;;10.60;8.97;;;0.80;99.90;;;;;;5055699;28;20411;-71
2023/01/19 02:26:48;;;;;;;12.87;9.20;;;0.80;99.90;;;;;;5056039;28;20960;-70
2023/01/19 02:29:17;;;;;;;11.77;9.07;;;0.70;99.90;;;;;;5074010;28;20941;-71
2023/01/19 02:31:44;;;;;;;14.80;11.70;;;0.80;99.90;;;;;;5073495;28;20451;-71
2023/01/19 02:34:14;;;;;;;11.70;9.77;;;0.70;99.90;;;;;;5056164;28;20403;-70
2023/01/19 02:36:45;;;;;;;10.03;8.97;;;0.60;99.90;;;;;;5054047;28;20977;-71
2023/01/19 02:39:13;;;;;;;11.63;9.00;;;0.60;99.90;;;;;;5053844;28;20519;-71
2023/01/19 02:41:45;;;;;;;12.43;9.97;;;0.70;99.90;;;;;;5054355;28;20412;-70
2023/01/19 02:44:12;;;;;;;11.77;8.70;;;0.70;99.90;;;;;;5055137;28;20776;-69
2023/01/19 02:46:37;;;;;;;10.23;9.00;;;0.60;99.90;;;;;;5070622;28;20452;-70
2023/01/19 02:49:03;;;;;;;10.13;8.77;;;0.60;99.90;;;;;;5076767;28;20426;-70
2023/01/19 02:51:29;;;;;;;11.63;8.77;;;0.60;99.90;;;;;;5076568;28;20168;-71
2023/01/19 02:54:03;;;;;;;11.03;9.40;;;0.70;99.90;;;;;;5080825;28;20191;-70
2023/01/19 02:56:41;;;;;;;9.00;8.10;;;0.70;99.90;;;;;;5080818;28;20192;-71
2023/01/19 02:59:46;;;;;;;9.90;8.67;;;0.70;99.90;;;;;;5095936;28;20445;-71
2023/01/19 03:02:49;;;;;;;11.97;10.10;;;0.70;99.90;;;;;;5082118;28;20423;-71
2023/01/19 03:05:18;;;;;;;11.07;8.60;;;0.50;99.90;;;;;;5071688;28;20388;-71
2023/01/19 03:07:49;;;;;;;11.47;8.90;;;0.50;99.90;;;;;;5098939;28;20450;-70
2023/01/19 03:10:35;;;;;;;10.10;9.00;;;0.60;99.90;;;;;;5090221;28;20393;-70
2023/01/19 03:13:19;;;;;;;11.90;7.97;;;0.60;99.90;;;;;;5080898;28;20384;-71
2023/01/19 03:15:51;;;;;;;8.90;7.50;;;0.60;99.90;;;;;;5094421;28;20466;-70
2023/01/19 03:18:29;;;;;;;11.23;8.67;;;0.70;99.90;;;;;;5077929;28;20487;-71
2023/01/19 03:20:58;;;;;;;11.10;8.80;;;0.80;99.90;;;;;;5074715;28;20416;-71
2023/01/19 03:23:29;;;;;;;9.83;8.83;;;0.60;99.90;;;;;;5045278;28;20458;-71
2023/01/19 03:25:56;;;;;;;11.17;9.07;;;0.40;99.90;;;;;;5060065;28;20433;-71
2023/01/19 03:28:25;;;;;;;11.47;9.47;;;0.40;99.90;;;;;;5057028;28;20420;-70
2023/01/19 03:31:22;;;;;;;10.07;8.00;;;0.60;99.90;;;;;;5056363;28;20447;-71
2023/01/19 03:33:52;;;;;;;11.17;8.40;;;0.50;99.90;;;;;;5040986;28;20796;-71
2023/01/19 03:36:27;;;;;;;13.40;9.67;;;0.50;99.90;;;;;;5056816;28;20427;-70
2023/01/19 03:38:56;;;;;;;9.87;8.50;;;0.60;99.90;;;;;;5056487;28;20997;-70
2023/01/19 03:41:24;;;;;;;11.83;8.03;;;0.60;99.90;;;;;;5038537;28;20834;-70
2023/01/19 03:43:52;;;;;;;8.43;7.10;;;0.50;99.90;;;;;;5038477;28;20408;-71
2023/01/19 03:46:19;;;;;;;8.97;7.50;;;0.60;99.90;;;;;;5067790;28;20845;-70
2023/01/19 03:48:46;;;;;;;10.87;9.07;;;0.60;99.90;;;;;;5058524;28;20439;-71
2023/01/19 03:51:13;;;;;;;11.20;8.90;;;0.50;99.90;;;;;;5076695;28;20416;-70
2023/01/19 03:53:39;;;;;;;10.67;9.37;;;0.40;99.90;;;;;;5058336;28;20417;-70
2023/01/19 03:56:05;;;;;;;11.43;9.33;;;0.50;99.90;;;;;;5058557;28;20430;-70
2023/01/19 03:58:31;;;;;;;11.50;8.20;;;0.50;99.90;;;;;;5076238;28;20460;-70
2023/01/19 04:00:57;;;;;;;12.10;9.60;;;0.40;99.90;;;;;;5075423;28;20501;-70
2023/01/19 04:03:22;;;;;;;10.90;9.37;;;0.30;99.90;;;;;;5075622;28;20173;-70
2023/01/19 04:05:48;;;;;;;9.80;8.63;;;0.30;99.90;;;;;;5075777;28;20177;-71
2023/01/19 04:08:13;;;;;;;12.60;9.50;;;0.20;99.90;;;;;;5075791;28;20180;-70
2023/01/19 04:10:39;;;;;;;12.33;8.50;;;0.10;99.90;;;;;;5075775;28;20702;-71
2023/01/19 04:13:04;;;;;;;11.77;9.37;;;0.20;99.90;;;;;;5076477;28;20176;-70
2023/01/19 04:15:31;;;;;;;10.60;9.50;;;0.30;99.90;;;;;;5074224;28;20172;-70
2023/01/19 04:17:58;;;;;;;12.83;10.20;;;0.20;99.90;;;;;;5075424;28;20200;-70
2023/01/19 04:20:25;;;;;;;14.83;11.43;;;0.20;99.90;;;;;;5075746;28;20408;-70
2023/01/19 04:22:51;;;;;;;15.30;11.20;;;0.10;99.90;;;;;;5075663;28;20480;-70
2023/01/19 04:25:17;;;;;;;13.67;10.90;;;0.10;99.90;;;;;;5038042;28;20496;-70
2023/01/19 04:27:42;;;;;;;12.53;10.27;;;0.10;99.90;;;;;;5055263;28;20339;-70
2023/01/19 04:30:09;;;;;;;12.90;11.00;;;0.10;99.90;;;;;;5055548;28;20208;-70
2023/01/19 04:32:34;;;;;;;13.90;11.37;;;0.00;99.90;;;;;;5037210;28;20181;-70
2023/01/19 04:35:00;;;;;;;14.40;11.07;;;0.00;99.90;;;;;;5037438;28;20416;-70
2023/01/19 04:37:25;;;;;;;15.40;11.93;;;0.10;99.90;;;;;;5055177;28;20195;-71
2023/01/19 04:39:51;;;;;;;14.40;11.57;;;0.10;99.90;;;;;;5037404;28;20177;-71
2023/01/19 04:42:17;;;;;;;17.30;12.70;;;0.10;99.90;;;;;;5055105;28;20177;-71
2023/01/19 04:44:42;;;;;;;12.77;10.50;;;0.10;99.90;;;;;;5055549;28;20178;-72
2023/01/19 04:47:08;;;;;;;16.00;11.70;;;0.10;99.90;;;;;;5077950;22;20245;-72
2023/01/19 04:49:36;;;;;;;17.60;10.63;;;0.20;99.90;;;;;;5077164;28;20180;-73
2023/01/19 04:52:03;;;;;;;12.70;11.13;;;0.20;99.90;;;;;;5075080;28;20635;-73
2023/01/19 04:54:29;;;;;;;13.57;12.00;;;0.20;99.90;;;;;;5074978;28;20475;-71
2023/01/19 04:56:55;;;;;;;14.83;11.70;;;0.20;99.90;;;;;;5074523;28;20411;-72
2023/01/19 04:59:20;;;;;;;14.57;11.50;;;0.20;99.90;;;;;;5057142;28;20995;-72
2023/01/19 05:01:46;;;;;;;13.00;11.50;;;0.20;99.90;;;;;;5074744;28;20512;-73
2023/01/19 05:04:11;;;;;;;11.50;9.90;;;0.10;99.90;;;;;;5074891;28;20183;-72
2023/01/19 05:06:37;;;;;;;13.77;12.23;;;0.10;99.90;;;;;;5074479;28;20197;-73
2023/01/19 05:09:06;;;;;;;12.83;11.33;;;0.20;99.90;;;;;;5075611;28;20230;-71
2023/01/19 05:11:32;;;;;;;11.20;10.10;;;0.30;99.90;;;;;;5075263;28;20201;-71
2023/01/19 05:13:57;;;;;;;14.73;12.13;;;0.40;99.90;;;;;;5075225;28;20916;-73
2023/01/19 05:16:23;;;;;;;14.37;12.87;;;0.30;99.90;;;;;;5072631;28;20204;-73
2023/01/19 05:18:49;;;;;;;15.27;12.60;;;0.30;99.90;;;;;;5074488;28;20562;-72
2023/01/19 05:21:14;;;;;;;14.17;12.27;;;0.30;99.90;;;;;;5075143;28;20239;-72
2023/01/19 05:23:40;;;;;;;11.83;10.57;;;0.30;99.90;;;;;;5074627;28;20161;-72
2023/01/19 05:26:05;;;;;;;12.77;11.13;;;0.20;99.90;;;;;;5074475;28;20247;-73
2023/01/19 05:28:32;;;;;;;14.33;11.70;;;0.10;99.90;;;;;;5074732;28;20204;-73
2023/01/19 05:30:58;;;;;;;16.17;12.60;;;0.30;99.90;;;;;;5074204;28;20541;-72
2023/01/19 05:33:24;;;;;;;32.00;21.30;;;0.30;99.90;;;;;;5074005;28;20407;-73
2023/01/19 05:35:51;;;;;;;12.40;10.43;;;0.20;99.90;;;;;;5074366;28;20170;-73
2023/01/19 05:38:18;;;;;;;14.63;11.67;;;0.20;99.90;;;;;;5074097;28;20250;-73
2023/01/19 05:40:43;;;;;;;16.33;13.37;;;0.30;99.90;;;;;;5074115;28;20398;-72
2023/01/19 05:43:09;;;;;;;12.83;11.50;;;0.30;99.90;;;;;;5074388;28;20460;-72
2023/01/19 05:45:34;;;;;;;15.10;11.80;;;0.40;99.90;;;;;;5074485;28;20255;-72
2023/01/19 05:48:00;;;;;;;12.80;10.73;;;0.50;99.90;;;;;;5073533;28;20216;-73
2023/01/19 05:50:26;;;;;;;13.90;11.50;;;0.50;99.90;;;;;;5070773;28;20393;-73
2023/01/19 05:52:52;;;;;;;11.13;10.03;;;0.50;99.90;;;;;;5063769;28;20419;-72
2023/01/19 05:55:18;;;;;;;11.37;10.17;;;0.40;99.90;;;;;;5073188;28;20199;-72
2023/01/19 05:57:44;;;;;;;12.70;10.87;;;0.20;99.90;;;;;;5066067;28;20459;-73
2023/01/19 06:00:10;;;;;;;10.97;9.83;;;0.30;99.90;;;;;;5044566;28;20955;-72
2023/01/19 06:02:36;;;;;;;11.27;9.30;;;0.30;99.90;;;;;;5070919;28;20181;-72
2023/01/19 06:05:03;;;;;;;13.00;10.93;;;0.30;99.90;;;;;;5071394;28;20407;-73
2023/01/19 06:07:30;;;;;;;14.77;11.63;;;0.30;99.90;;;;;;5073500;28;20637;-72
2023/01/19 06:09:56;;;;;;;13.23;10.50;;;0.30;99.90;;;;;;5073493;28;20407;-72
2023/01/19 06:12:22;;;;;;;11.37;10.20;;;0.30;99.90;;;;;;5055588;28;20412;-72
2023/01/19 06:14:47;;;;;;;15.83;11.20;;;0.30;99.90;;;;;;5073797;28;20909;-71
2023/01/19 06:17:13;;;;;;;12.90;10.13;;;0.10;99.90;;;;;;5071468;28;20195;-71
2023/01/19 06:19:38;;;;;;;13.60;10.30;;;0.20;99.90;;;;;;5073137;28;20627;-72
2023/01/19 06:22:04;;;;;;;16.40;11.97;;;0.20;99.90;;;;;;5055878;28;20191;-73
2023/01/19 06:24:30;;;;;;;13.80;11.10;;;0.20;99.90;;;;;;5073539;28;20168;-72
2023/01/19 06:26:55;;;;;;;12.70;10.20;;;0.20;99.90;;;;;;5072781;28;20790;-72
2023/01/19 06:29:21;;;;;;;13.93;9.70;;;0.20;99.90;;;;;;5073191;28;20232;-72
2023/01/19 06:31:47;;;;;;;10.73;9.40;;;0.20;99.90;;;;;;5072685;28;20172;-72
2023/01/19 06:34:13;;;;;;;13.30;10.30;;;0.30;99.90;;;;;;5055554;28;20422;-72
2023/01/19 06:36:38;;;;;;;10.67;9.17;;;0.30;99.90;;;;;;5073056;28;20182;-71
2023/01/19 06:39:04;;;;;;;10.60;9.07;;;0.30;99.90;;;;;;5072970;28;20184;-72
2023/01/19 06:41:32;;;;;;;15.23;9.80;;;0.40;99.90;;;;;;5054950;28;20174;-72
2023/01/19 06:43:58;;;;;;;15.37;9.30;;;0.50;99.90;;;;;;5073015;28;20816;-71
2023/01/19 06:46:24;;;;;;;11.90;10.20;;;0.50;99.90;;;;;;5072609;28;20545;-71
2023/01/19 06:48:50;;;;;;;14.30;9.10;;;0.40;99.90;;;;;;5073545;28;20209;-72
2023/01/19 06:51:16;;;;;;;11.40;10.10;;;0.40;99.90;;;;;;5074293;28;20403;-72
2023/01/19 06:53:41;;;;;;;10.83;9.70;;;0.50;99.90;;;;;;5055453;28;20170;-70
2023/01/19 06:56:08;;;;;;;10.17;9.07;;;0.40;99.90;;;;;;5074550;28;20219;-71
2023/01/19 06:58:34;;;;;;;13.80;10.23;;;0.30;99.90;;;;;;5076764;28;20170;-72
2023/01/19 07:01:02;;;;;;;11.67;10.47;;;0.30;99.90;;;;;;5077108;28;20431;-73
2023/01/19 07:03:27;;;;;;;12.93;9.00;;;0.30;99.90;;;;;;5079544;28;20425;-72
2023/01/19 07:05:53;;;;;;;13.30;10.13;;;0.30;99.90;;;;;;5078005;28;20421;-72
2023/01/19 07:08:19;;;;;;;8.67;7.83;;;0.40;99.90;;;;;;5079283;28;20229;-72
2023/01/19 07:10:45;;;;;;;10.77;8.30;;;0.30;99.90;;;;;;5080987;28;20898;-72
2023/01/19 07:13:11;;;;;;;11.40;8.70;;;0.40;99.90;;;;;;5075222;28;20466;-71
2023/01/19 07:15:36;;;;;;;12.70;9.23;;;0.50;99.90;;;;;;5075152;28;20695;-72
2023/01/19 07:18:06;;;;;;;11.13;8.40;;;0.50;99.90;;;;;;5077416;28;20229;-71
2023/01/19 07:20:35;;;;;;;9.03;7.10;;;0.60;99.90;;;;;;5075500;28;20659;-73
2023/01/19 07:23:01;;;;;;;10.57;8.60;;;0.60;99.90;;;;;;5073122;28;20415;-71
2023/01/19 07:25:27;;;;;;;10.10;8.67;;;0.70;99.90;;;;;;5074125;28;20899;-72
2023/01/19 07:28:00;;;;;;;9.67;8.67;;;0.70;99.90;;;;;;5072582;28;20550;-70
2023/01/19 07:30:26;;;;;;;9.90;8.27;;;0.50;99.90;;;;;;5073204;28;20409;-72
2023/01/19 07:32:54;;;;;;;7.80;6.83;;;0.60;99.90;;;;;;5054317;28;20960;-72
2023/01/19 07:35:20;;;;;;;11.87;8.63;;;0.70;99.90;;;;;;5073224;28;20176;-72
2023/01/19 07:37:46;;;;;;;9.33;7.40;;;0.70;99.90;;;;;;5073247;28;20422;-71
2023/01/19 07:40:12;;;;;;;9.33;7.27;;;0.80;99.90;;;;;;5075124;28;20411;-72
2023/01/19 07:42:37;;;;;;;8.27;6.87;;;0.70;99.90;;;;;;5076509;28;20208;-72
2023/01/19 07:45:03;;;;;;;9.10;7.70;;;0.60;99.90;;;;;;5077727;28;20540;-71
2023/01/19 07:47:29;;;;;;;7.63;6.83;;;0.70;99.90;;;;;;5076360;28;20225;-73
2023/01/19 07:49:55;;;;;;;19.80;10.93;;;0.60;99.90;;;;;;5077779;28;20489;-73
2023/01/19 07:52:21;;;;;;;12.57;8.30;;;0.70;99.90;;;;;;5076220;28;20169;-73
2023/01/19 07:54:49;;;;;;;10.23;6.90;;;0.70;99.90;;;;;;5076577;28;20180;-72
2023/01/19 07:57:15;;;;;;;9.50;7.03;;;0.80;99.90;;;;;;5076212;28;20457;-72
2023/01/19 07:59:41;;;;;;;10.47;7.37;;;0.80;99.90;;;;;;5059323;28;20411;-72
2023/01/19 08:02:09;;;;;;;10.73;6.07;;;0.90;99.90;;;;;;5058147;28;20458;-71
2023/01/19 08:04:35;;;;;;;8.97;6.53;;;0.80;99.90;;;;;;5056456;28;20221;-72
2023/01/19 08:07:00;;;;;;;11.87;7.30;;;0.80;99.90;;;;;;5037861;28;20431;-72
2023/01/19 08:09:26;;;;;;;7.90;6.73;;;0.70;99.90;;;;;;5038277;28;20665;-72
2023/01/19 08:11:52;;;;;;;7.67;6.67;;;0.80;99.90;;;;;;5056393;28;20181;-72
2023/01/19 08:14:17;;;;;;;7.63;5.97;;;0.90;99.90;;;;;;5057252;28;20171;-72
2023/01/19 08:16:43;;;;;;;7.00;6.07;;;1.00;99.90;;;;;;5062780;28;20664;-72
2023/01/19 08:19:09;;;;;;;9.10;7.13;;;0.90;99.90;;;;;;5076277;28;20166;-72
2023/01/19 08:21:35;;;;;;;8.87;7.87;;;0.80;99.90;;;;;;5076657;28;20275;-72
2023/01/19 08:24:01;;;;;;;9.60;6.83;;;0.80;99.90;;;;;;5077069;28;20172;-72
2023/01/19 08:26:32;;;;;;;11.10;6.53;;;1.00;99.90;;;;;;5077475;28;20426;-72
2023/01/19 08:29:01;;;;;;;10.60;6.13;;;1.00;99.90;;;;;;5077700;28;20432;-72
2023/01/19 08:31:28;;;;;;;7.37;6.30;;;0.90;99.90;;;;;;5076965;28;20415;-72
2023/01/19 08:33:54;;;;;;;8.83;6.90;;;0.80;99.90;;;;;;5059535;28;20457;-72
2023/01/19 08:36:20;;;;;;;7.97;6.80;;;0.90;99.90;;;;;;5077534;28;20472;-72
2023/01/19 08:38:46;;;;;;;9.03;7.03;;;0.90;99.90;;;;;;5077609;28;20408;-71
2023/01/19 08:41:13;;;;;;;7.70;6.90;;;1.10;99.90;;;;;;5077877;28;20409;-73
2023/01/19 08:43:38;;;;;;;9.07;7.07;;;1.10;99.90;;;;;;5076838;28;20404;-71
2023/01/19 08:46:04;;;;;;;9.70;6.90;;;1.20;99.90;;;;;;5076001;28;20408;-71
2023/01/19 08:48:30;;;;;;;6.73;6.03;;;1.30;99.90;;;;;;5075886;28;20209;-71
2023/01/19 08:50:56;;;;;;;8.47;7.27;;;1.00;99.90;;;;;;5076328;28;20965;-71
2023/01/19 08:53:22;;;;;;;12.20;7.10;;;0.90;99.90;;;;;;5077575;28;20655;-71
2023/01/19 08:55:48;;;;;;;8.13;7.10;;;0.80;99.90;;;;;;5077146;28;20409;-72
2023/01/19 08:58:14;;;;;;;8.77;7.47;;;0.70;99.90;;;;;;5058487;28;20456;-71
2023/01/19 09:00:40;;;;;;;9.13;7.60;;;0.90;99.90;;;;;;5076332;28;20491;-72
2023/01/19 09:03:10;;;;;;;9.43;7.50;;;0.90;99.90;;;;;;5076425;28;20173;-71
2023/01/19 09:05:37;;;;;;;7.67;6.90;;;1.10;99.90;;;;;;5075611;28;20170;-73
2023/01/19 09:08:09;;;;;;;9.23;7.47;;;1.30;99.90;;;;;;5075063;28;20902;-71
2023/01/19 09:10:36;;;;;;;7.63;6.83;;;1.50;99.90;;;;;;5075157;28;20466;-70
2023/01/19 09:13:04;;;;;;;8.40;7.20;;;1.70;99.90;;;;;;5075053;28;20408;-72
2023/01/19 09:15:32;;;;;;;6.80;6.17;;;1.70;99.90;;;;;;5056923;28;20412;-71
2023/01/19 09:17:58;;;;;;;9.33;6.77;;;1.70;99.90;;;;;;5054783;28;20926;-71
2023/01/19 09:20:24;;;;;;;7.50;6.47;;;1.80;99.90;;;;;;5056286;28;20419;-71
2023/01/19 09:22:49;;;;;;;9.57;6.77;;;1.90;99.90;;;;;;5057250;28;20173;-72
2023/01/19 09:25:15;;;;;;;7.30;6.43;;;2.20;99.90;;;;;;5074872;28;20224;-71
2023/01/19 09:27:41;;;;;;;7.67;6.50;;;2.20;99.90;;;;;;5056441;28;20694;-72
2023/01/19 09:30:10;;;;;;;7.87;6.97;;;2.30;99.90;;;;;;5074515;28;20278;-71
2023/01/19 09:32:35;;;;;;;8.10;7.30;;;2.50;99.90;;;;;;5056499;28;20174;-70
2023/01/19 09:35:01;;;;;;;7.83;6.40;;;2.70;99.90;;;;;;5075108;28;20411;-73
2023/01/19 09:37:27;;;;;;;8.20;6.73;;;3.00;99.90;;;;;;5073958;28;20243;-70
2023/01/19 09:39:52;;;;;;;8.70;6.23;;;3.10;99.90;;;;;;5074625;28;20548;-71
2023/01/19 09:42:18;;;;;;;15.03;6.73;;;3.10;99.90;;;;;;5074409;28;20204;-72
2023/01/19 09:44:45;;;;;;;6.90;6.27;;;3.30;99.90;;;;;;5074403;28;20179;-72
2023/01/19 09:47:18;;;;;;;8.40;5.57;;;3.10;99.90;;;;;;5055788;28;20274;-73
2023/01/19 09:49:49;;;;;;;7.57;6.23;;;2.90;99.90;;;;;;5056484;28;20446;-71
2023/01/19 09:52:17;;;;;;;6.10;5.50;;;3.10;99.90;;;;;;5076626;28;20388;-71
2023/01/19 09:54:58;;;;;;;6.50;5.73;;;3.30;99.90;;;;;;5075925;28;20409;-70
2023/01/19 09:57:26;;;;;;;6.07;5.47;;;3.30;99.90;;;;;;5074902;28;20427;-71
2023/01/19 09:59:56;;;;;;;6.83;6.00;;;3.20;99.90;;;;;;5076147;28;20404;-71
2023/01/19 10:02:34;;;;;;;7.73;6.10;;;3.10;99.90;;;;;;5073613;28;20393;-72
2023/01/19 10:05:23;;;;;;;8.17;6.13;;;3.10;99.90;;;;;;5067894;28;20428;-72
2023/01/19 10:08:11;;;;;;;7.33;5.93;;;3.20;99.90;;;;;;5052032;28;20465;-70
2023/01/19 10:10:41;;;;;;;8.20;6.33;;;3.10;99.90;;;;;;5055142;28;20467;-71
2023/01/19 10:13:31;;;;;;;10.00;6.90;;;3.30;99.90;;;;;;5055164;28;20416;-72
2023/01/19 10:16:08;;;;;;;6.73;5.97;;;3.20;99.90;;;;;;5036522;28;20781;-70
2023/01/19 10:18:46;;;;;;;6.93;6.03;;;3.40;99.90;;;;;;5070168;28;20782;-69
2023/01/19 10:21:34;;;;;;;6.13;5.50;;;3.60;99.90;;;;;;5074574;28;20391;-69
2023/01/19 10:24:28;;;;;;;6.33;5.73;;;3.50;99.90;;;;;;5074524;28;20392;-70
2023/01/19 10:26:55;;;;;;;7.83;6.40;;;3.20;99.90;;;;;;5071281;28;20447;-70
2023/01/19 10:29:36;;;;;;;7.83;6.30;;;3.30;99.90;;;;;;5074198;28;20455;-71
2023/01/19 10:32:20;;;;;;;6.53;5.20;;;3.70;99.90;;;;;;5057608;28;20404;-72
2023/01/19 10:34:46;;;;;;;9.43;6.50;;;4.10;99.90;;;;;;5074259;28;20415;-71
2023/01/19 10:37:17;;;;;;;8.43;5.90;;;4.50;99.90;;;;;;5074311;28;20523;-70
2023/01/19 10:39:52;;;;;;;7.10;6.40;;;4.50;99.90;;;;;;5075920;28;20462;-71
2023/01/19 10:42:18;;;;;;;8.93;5.63;;;4.20;99.90;;;;;;5059033;28;20731;-72
2023/01/19 10:44:44;;;;;;;8.47;6.20;;;3.90;99.90;;;;;;5057869;28;20405;-71
2023/01/19 10:47:59;;;;;;;6.37;5.60;;;3.90;99.90;;;;;;5081174;28;20470;-71
2023/01/19 10:50:27;;;;;;;10.27;6.40;;;4.00;99.90;;;;;;5077112;28;20436;-71
2023/01/19 10:53:00;;;;;;;6.77;6.07;;;4.10;99.90;;;;;;5076136;28;20397;-71
2023/01/19 10:55:38;;;;;;;7.00;6.07;;;4.20;99.90;;;;;;5055896;28;20408;-71
2023/01/19 10:58:28;;;;;;;6.30;5.70;;;4.00;99.90;;;;;;5074065;28;20511;-71
2023/01/19 11:00:54;;;;;;;7.20;6.27;;;4.10;99.90;;;;;;5056841;28;20391;-70
2023/01/19 11:03:26;;;;;;;7.50;6.10;;;4.30;99.90;;;;;;5073613;28;20404;-70
2023/01/19 11:05:52;;;;;;;6.43;5.80;;;4.30;99.90;;;;;;5073839;28;20164;-73
2023/01/19 11:08:29;;;;;;;7.30;6.13;;;4.20;99.90;;;;;;5057598;28;20531;-71
2023/01/19 11:11:02;;;;;;;6.97;5.60;;;4.00;99.90;;;;;;5074238;28;20165;-69
2023/01/19 11:13:28;;;;;;;8.60;5.90;;;4.40;99.90;;;;;;5074712;28;20380;-70
2023/01/19 11:15:58;;;;;;;6.37;5.70;;;4.50;99.90;;;;;;5077257;28;20404;-71
2023/01/19 11:18:42;;;;;;;7.90;5.67;;;4.00;99.90;;;;;;5075747;28;20661;-71
2023/01/19 11:21:13;;;;;;;9.27;5.67;;;4.00;99.90;;;;;;5077646;28;20381;-71
2023/01/19 11:23:45;;;;;;;7.20;5.70;;;4.00;99.90;;;;;;5060463;28;20503;-71
2023/01/19 11:26:24;;;;;;;6.40;5.33;;;4.10;99.90;;;;;;5077177;28;20426;-72
2023/01/19 11:28:53;;;;;;;8.07;5.47;;;4.40;99.90;;;;;;5077209;28;20453;-69
2023/01/19 11:31:28;;;;;;;7.23;5.73;;;4.60;99.90;;;;;;5076682;28;20407;-69
2023/01/19 11:33:56;;;;;;;6.60;5.50;;;4.60;99.90;;;;;;5076153;28;20387;-71
2023/01/19 11:36:28;;;;;;;9.23;6.17;;;4.70;99.90;;;;;;5076922;28;20562;-69
2023/01/19 11:38:55;;;;;;;12.80;6.03;;;4.70;99.90;;;;;;5076916;28;20404;-68
2023/01/19 11:41:31;;;;;;;8.47;6.43;;;4.60;99.90;;;;;;5058720;28;20404;-69
2023/01/19 11:44:08;;;;;;;7.80;5.87;;;4.60;99.90;;;;;;5076733;28;20746;-69
2023/01/19 11:46:39;;;;;;;6.30;5.70;;;5.10;99.90;;;;;;5076113;28;20874;-70
2023/01/19 11:49:14;;;;;;;6.17;5.37;;;5.10;99.90;;;;;;5057923;28;20447;-70
2023/01/19 11:52:10;;;;;;;6.80;5.80;;;5.20;99.90;;;;;;5076910;28;20889;-70
2023/01/19 11:54:53;;;;;;;7.83;5.30;;;5.00;99.90;;;;;;5075993;28;20511;-70
2023/01/19 11:57:19;;;;;;;5.80;4.70;;;5.00;99.90;;;;;;5076252;28;20466;-70
2023/01/19 11:59:45;;;;;;;6.03;4.60;;;5.00;99.90;;;;;;5076076;28;20411;-69
2023/01/19 12:02:21;;;;;;;5.83;5.20;;;5.00;99.90;;;;;;5075703;28;20408;-69
2023/01/19 12:04:49;;;;;;;5.80;5.20;;;4.80;99.90;;;;;;5075104;28;20150;-69
2023/01/19 12:07:19;;;;;;;6.50;5.90;;;4.50;99.90;;;;;;5075211;28;20428;-69
2023/01/19 12:09:50;;;;;;;6.87;6.20;;;4.30;99.90;;;;;;5076227;28;20385;-69
2023/01/19 12:12:29;;;;;;;7.20;6.27;;;4.20;99.90;;;;;;5074679;28;20385;-69
2023/01/19 12:14:58;;;;;;;6.20;5.60;;;4.20;99.90;;;;;;5056092;28;20388;-69
2023/01/19 12:17:28;;;;;;;6.77;5.40;;;4.30;99.90;;;;;;5058868;28;20439;-69
2023/01/19 12:20:34;;;;;;;6.77;6.10;;;4.40;99.90;;;;;;5075596;28;20445;-70
2023/01/19 12:23:21;;;;;;;5.93;5.00;;;4.40;99.90;;;;;;5047435;28;20879;-69
2023/01/19 12:26:05;;;;;;;6.50;4.93;;;4.20;99.90;;;;;;5074952;28;20392;-70
2023/01/19 12:28:36;;;;;;;7.40;5.40;;;4.10;99.90;;;;;;5075897;28;20950;-70
2023/01/19 12:31:03;;;;;;;7.93;5.30;;;4.20;99.90;;;;;;5075885;28;20393;-72
2023/01/19 12:33:38;;;;;;;7.27;5.70;;;4.40;99.90;;;;;;5075322;28;20438;-74
2023/01/19 12:36:31;;;;;;;6.27;5.67;;;4.60;99.90;;;;;;5057915;28;20905;-74
2023/01/19 12:39:04;;;;;;;6.83;6.03;;;4.60;99.90;;;;;;5075602;28;20411;-71
2023/01/19 12:41:38;;;;;;;8.10;6.33;;;4.60;99.90;;;;;;5076583;28;20478;-74
2023/01/19 12:44:09;;;;;;;6.67;5.17;;;4.60;99.90;;;;;;5082188;28;20766;-74
2023/01/19 12:46:36;;;;;;;6.10;5.40;;;4.60;99.90;;;;;;5062230;28;21100;-73
2023/01/19 12:49:13;;;;;;;9.00;6.33;;;4.80;99.90;;;;;;5075309;28;20454;-74
2023/01/19 12:51:38;;;;;;;5.87;5.23;;;4.60;99.90;;;;;;5075906;28;20395;-75
2023/01/19 12:54:15;;;;;;;6.80;5.33;;;4.80;99.90;;;;;;5075665;28;20767;-74
2023/01/19 12:56:40;;;;;;;5.97;5.00;;;4.80;99.90;;;;;;5075770;28;20312;-71
2023/01/19 12:59:17;;;;;;;5.03;4.27;;;4.80;99.90;;;;;;5075792;28;20436;-71
2023/01/19 13:01:43;;;;;;;5.20;4.57;;;4.70;99.90;;;;;;5075878;28;20162;-72
2023/01/19 13:04:31;;;;;;;6.47;5.40;;;4.90;99.90;;;;;;5075217;28;20754;-71
2023/01/19 13:06:59;;;;;;;8.63;5.97;;;4.70;99.90;;;;;;5075542;28;20197;-70
2023/01/19 13:09:32;;;;;;;6.77;5.57;;;4.70;99.90;;;;;;5075849;28;20530;-70